Accueil
METAR-TAF:

METAR-TAF

Aéroports :

Base aérienne de Chièvres

Chièvres, Belgique

latitude: 50-34N, longitude: 003-50E, altitude: 60 m

Observation

Le bulletin a été fait il y a 24 minutes, à 19:25 UTC
Vent 4 kt de sud
Température 11°C
Humidité 82%
Pression 1030 hPa
Visibilité 10 km ou plus

METAR: EBCV 061925Z AUTO 19004KT 9999 NCD 11/08 Q1030 BLU

Heure: 21:49 (19:49 UTC)

Prévision

Le bulletin a été fait il y a 4 heures et 8 minutes, à 15:41 UTC
Prévision valable du 06 à 19 UTC au 07 à 07 UTC
Vent 8 kt de ouest/sud-ouest
Visibilité 10 km ou plus
Quelques nuages à une hauteur de 3400 ft
Temporairement
du 07 à 05 UTC au 07 à 07 UTC
Visibilité: 5000 m
Ciel clair
brume

TAF: EBCV 061541Z 0619/0707 25008KT 9999 FEW034 BY EBWM TEMPO 0705/0707 5000 BR SKC

Observations et prévisions météorologiques de plus de 4000 aéroports (messages METAR et TAF).

Les stations disponibles sont représentées par des disques jaunes et rouges sur la carte.

Passer la souris dessus pour voir le nom de la station.

Cliquer dessus pour voir les observations et prévisions météorologiques.

Pour changer de carte: cliquez sur les boutons verts avec une croix noire pour zoomer, sur le bouton vert avec un tiret pour effectuer un zoom arrière, ou sur les flèches vertes pour les cartes adjacentes.


METAR-TAF: